x

New York Harbor Entrance - 15 Nm Se Of Breezy Point , Ny (44065) Wave Buoy

11:50am - Sun 24th May 2015 All times are EDT. -4 hours from GMT.

  • Sig Wave height 1.6ft
  • Swell Direction
  • Peak Period 3s
  • Average Period 3s
  • Wind
    13mph, 16mph gusts
  • Sea Temp 55°f
  • Air Temp 58°f
  • Sea Pressure 1027.5mb
  • New York Harbor Entrance - 15 Nm Se Of Breezy Point , Ny
  • New York Harbor Entrance - 15 Nm Se Of Breezy Point , Ny

More Historic Weather Station data

Upgrade to MSW Pro to gain access to the past 30 days of data for over 8000 Wavebouys and Weather Stations around the globe.

Join Pro

Comparision Forecast

View Surf forecast
   
Sun 05/24 11:50am 1.6ft 3s 3s 13 16 mph 1027.5mb 55f 58f
10:50am 1.6ft 4s 4s 13 16 mph 1027.8mb 55f 57f
9:50am 1.6ft 5s 4s 11
mph
1028.4mb 55f 56f
8:50am 1.6ft 4s 4s 13
mph
1028.6mb 55f 56f
7:50am 1.6ft 5s 4s 13 16 mph 1028.2mb 55f 55f
6:50am 2ft 7s 4s 13 16 mph 1028.3mb 55f 55f
5:50am 2ft 5s 4s 11 16 mph 1028mb 55f 55f
4:50am 2ft 5s 4s 16 18 mph 1027.7mb 55f 55f
3:50am 2ft 5s 4s 13 16 mph 1027.8mb 55f 55f
2:50am 2.5ft 4s 4s 13 18 mph 1027.9mb 55f 55f
1:50am 2.5ft 4s 4s 16 20 mph 1027.5mb 55f 56f
12:50am 2.5ft 5s 4s 16 18 mph 1027.7mb 55f 56f
Sat 05/23 11:50pm 3ft 4s 4s 16 18 mph 1027.8mb 55f 56f
10:50pm 3ft 4s 4s 18 22 mph 1027.7mb 55f 56f
9:50pm 3ft 4s 4s 18 22 mph 1027.5mb 55f 56f
8:50pm 2.5ft 4s 4s 18 22 mph 1027.3mb 55f 56f
7:50pm 2.5ft 3s 3s 20 22 mph 1027.6mb 56f 56f
6:50pm 2ft 3s 3s 20 22 mph 1027.7mb 56f 56f
5:50pm 1.6ft 8s 3s 18 20 mph 1027.9mb 56f 55f
4:50pm 1.3ft 9s 4s 18 20 mph 1028.1mb 56f 55f
3:50pm 1.3ft 9s 5s 11 13 mph 1028.5mb 57f 56f
2:50pm 1.3ft 9s 5s 9 11 mph 1028.9mb 56f 57f
1:50pm 1.3ft 8s 4s 9 11 mph 1029.4mb 56f 55f
12:50pm 1.6ft 7s 4s 9 11 mph 1029.8mb 56f 54f
11:50am 1.6ft 3s 4s 11 13 mph 1030mb 56f 52f
10:50am 1.6ft 3s 4s 13 16 mph 1030mb 55f 51f
9:50am 1.6ft 4s 4s 13 16 mph 1029.7mb 56f 51f
8:50am 2ft 4s 4s 13 16 mph 1028.9mb 55f 51f
7:50am 2.5ft 4s 4s 18 22 mph 1028mb 55f 51f
6:50am 2.5ft 4s 4s 22 27 mph 1026.7mb 55f 52f
5:50am 3.5ft 4s 4s 22 27 mph 1025.6mb 55f 53f
4:50am 3.5ft 4s 4s 27 34 mph 1024.3mb 56f 54f
3:50am 3.5ft 4s 4s 27 31 mph 1023.7mb 56f 55f
2:50am 2.5ft 3s 4s 25 31 mph 1022.3mb 56f 57f
1:50am 2.5ft 3s 4s 20 25 mph 1021.7mb 56f 59f
12:50am 1.6ft 7s 4s 16 18 mph 1020.8mb 56f 60f
Fri 05/22 11:50pm 1.6ft 7s 4s 16 18 mph 1020mb 57f 61f
10:50pm 1.6ft 8s 5s 9 13 mph 1018.7mb 57f 59f
9:50pm 1.6ft 7s 4s 9
mph
1017.6mb 57f 60f
8:50pm 2ft 8s 4s 11 13 mph 1016.6mb 57f 63f
7:50pm 1.6ft 8s 4s 7 9 mph 1015.6mb 57f 61f
6:50pm 2ft 3s 4s 9 11 mph 1015.1mb 57f 61f
4:50pm 1.6ft 3s 4s 13 18 mph 1013.7mb 57f 65f
3:50pm 1.6ft 3s 3s 13 16 mph 1013.3mb 57f 64f
2:50pm 1ft 8s 4s 11 13 mph 1013.2mb 57f 64f
1:50pm 1ft 8s 5s 11 13 mph 1013.2mb 57f 60f
12:50pm 1ft 8s 5s 9 11 mph 1013.6mb 57f 59f
11:50am 1ft 8s 4s 7 9 mph 1013.8mb 56f 58f
10:50am 1.3ft 3s 3s 11
mph
1013.7mb 56f 58f
9:50am 1.6ft 3s 3s 16 18 mph 1013.4mb 56f 57f
8:50am 1.6ft 3s 3s 16 20 mph 1012.8mb 56f 56f
7:50am 1.6ft 3s 3s 16 18 mph 1012.5mb 56f 56f
6:50am 1.6ft 3s 3s 18 20 mph 1011.8mb 56f 56f
5:50am 1.3ft 8s 3s 16 20 mph 1011.1mb 56f 55f
4:50am 1.3ft 8s 4s 16 18 mph 1010.5mb 56f 55f
3:50am 1ft 9s 5s 11 13 mph 1010.6mb 56f 53f
2:50am 1ft 9s 7s 9 11 mph 1010.8mb 56f 53f
1:50am 1ft 9s 7s 7 11 mph 1011.3mb 56f 53f
12:50am 1ft 9s 7s 9
mph
1011.6mb 56f 53f
Thu 05/21 11:50pm 1ft 8s 7s 7
mph
1011.8mb 56f 52f
10:50pm 1ft 8s 7s 7
mph
1012.1mb 56f 52f
9:50pm 1ft 9s 6s 7
mph
1012.9mb 56f 52f
8:50pm 1ft 9s 6s 2
mph
1013.3mb 56f 51f
7:50pm 1ft 9s 6s 4 7 mph 1013.4mb 56f 51f
6:50pm 1ft 8s 4s 4 7 mph 1013.9mb 56f 51f
5:50pm 1.3ft 9s 4s 11 13 mph 1013.9mb 56f 52f
4:50pm 1ft 8s 4s 9 11 mph 1013.8mb 56f 52f
3:50pm 1ft 8s 5s 11 13 mph 1014.2mb 56f 54f
2:50pm 1ft 9s 6s 9 13 mph 1014.7mb 56f 54f
1:50pm 1ft 8s 7s 11
mph
1015.2mb 56f 55f
12:50pm 1ft 9s 7s 4 7 mph 1015.6mb 56f 55f
11:50am 1ft 9s 7s  -  2 mph 1016mb 56f 56f
10:50am 1.3ft 9s 7s 2
mph
1016mb 56f 55f
9:50am 1ft 9s 7s 4
mph
1015.8mb 56f 55f
8:50am 1ft 9s 7s  -  2 mph 1016.5mb 56f 55f
7:50am 1ft 9s 7s  -  2 mph 1016.3mb 56f 55f
6:50am 1ft 9s 7s 4
mph
1016.1mb 56f 55f
5:50am 1.3ft 9s 6s 4 7 mph 1015.2mb 56f 55f
4:50am 1.3ft 8s 6s 4
mph
1015.2mb 56f 55f
3:50am 1.3ft 9s 4s 7
mph
1015.6mb 56f 55f
2:50am 1.6ft 9s 4s 9 11 mph 1015.2mb 56f 55f
1:50am 1.6ft 9s 4s 11 13 mph 1015.3mb 56f 56f
12:50am 1.6ft 10s 4s 16 18 mph 1015.1mb 56f 56f
Wed 05/20 11:50pm 2ft 9s 4s 13 18 mph 1015.3mb 56f 57f
10:50pm 2.5ft 9s 4s 16 20 mph 1015.1mb 56f 57f
9:50pm 2.5ft 4s 4s 18 22 mph 1015.1mb 56f 57f
8:50pm 2.5ft 9s 4s 16 18 mph 1014.3mb 56f 58f
7:50pm 2.5ft 9s 4s 16 20 mph 1013.5mb 56f 59f
6:50pm 2.5ft 9s 4s 16 18 mph 1012.9mb 57f 59f
5:50pm 2.5ft 9s 4s 13 16 mph 1012.9mb 57f 58f